sensor_id;sensor_type;location;lat;lon;timestamp;temperature;humidity
22917;DHT22;11624;53.250;7.456;2023-04-30T00:01:57;12.08;50.96
22917;DHT22;11624;53.250;7.456;2023-04-30T00:04:25;12.07;50.92
22917;DHT22;11624;53.250;7.456;2023-04-30T00:06:53;12.04;50.90
22917;DHT22;11624;53.250;7.456;2023-04-30T00:09:23;12.04;50.91
22917;DHT22;11624;53.250;7.456;2023-04-30T00:11:51;12.02;50.94
22917;DHT22;11624;53.250;7.456;2023-04-30T00:14:19;11.99;50.91
22917;DHT22;11624;53.250;7.456;2023-04-30T00:16:47;11.99;51.01
22917;DHT22;11624;53.250;7.456;2023-04-30T00:19:15;11.96;51.04
22917;DHT22;11624;53.250;7.456;2023-04-30T00:21:43;11.93;51.07
22917;DHT22;11624;53.250;7.456;2023-04-30T00:24:11;11.90;51.10
22917;DHT22;11624;53.250;7.456;2023-04-30T00:26:41;11.89;51.17
22917;DHT22;11624;53.250;7.456;2023-04-30T00:29:09;11.86;51.20
22917;DHT22;11624;53.250;7.456;2023-04-30T00:31:38;11.84;51.21
22917;DHT22;11624;53.250;7.456;2023-04-30T00:34:06;11.81;51.32
22917;DHT22;11624;53.250;7.456;2023-04-30T00:36:34;11.79;51.40
22917;DHT22;11624;53.250;7.456;2023-04-30T00:39:02;11.76;51.41
22917;DHT22;11624;53.250;7.456;2023-04-30T00:41:31;11.75;51.51
22917;DHT22;11624;53.250;7.456;2023-04-30T00:44:01;11.71;51.50
22917;DHT22;11624;53.250;7.456;2023-04-30T00:46:29;11.69;51.44
22917;DHT22;11624;53.250;7.456;2023-04-30T00:48:57;11.68;51.37
22917;DHT22;11624;53.250;7.456;2023-04-30T00:51:28;11.67;51.40
22917;DHT22;11624;53.250;7.456;2023-04-30T00:53:57;11.66;51.30
22917;DHT22;11624;53.250;7.456;2023-04-30T00:56:27;11.62;51.30
22917;DHT22;11624;53.250;7.456;2023-04-30T00:58:55;11.58;51.39
22917;DHT22;11624;53.250;7.456;2023-04-30T01:01:26;11.57;51.30
22917;DHT22;11624;53.250;7.456;2023-04-30T01:03:55;11.56;51.37
22917;DHT22;11624;53.250;7.456;2023-04-30T01:06:24;11.53;51.30
22917;DHT22;11624;53.250;7.456;2023-04-30T01:08:53;11.49;51.32
22917;DHT22;11624;53.250;7.456;2023-04-30T01:11:30;11.46;50.96
22917;DHT22;11624;53.250;7.456;2023-04-30T01:14:05;11.45;51.12
22917;DHT22;11624;53.250;7.456;2023-04-30T01:16:40;11.42;51.01
22917;DHT22;11624;53.250;7.456;2023-04-30T01:19:19;11.38;50.85
22917;DHT22;11624;53.250;7.456;2023-04-30T01:21:57;11.36;51.37
22917;DHT22;11624;53.250;7.456;2023-04-30T01:24:42;11.32;50.84
22917;DHT22;11624;53.250;7.456;2023-04-30T01:27:25;11.29;51.00
22917;DHT22;11624;53.250;7.456;2023-04-30T01:30:00;11.30;51.33
22917;DHT22;11624;53.250;7.456;2023-04-30T01:32:30;11.27;51.50
22917;DHT22;11624;53.250;7.456;2023-04-30T01:34:58;11.27;51.53
22917;DHT22;11624;53.250;7.456;2023-04-30T01:37:34;11.24;51.36
22917;DHT22;11624;53.250;7.456;2023-04-30T01:40:18;11.20;51.12
22917;DHT22;11624;53.250;7.456;2023-04-30T01:42:54;11.20;51.56
22917;DHT22;11624;53.250;7.456;2023-04-30T01:45:48;11.14;51.08
22917;DHT22;11624;53.250;7.456;2023-04-30T01:48:28;11.12;51.21
22917;DHT22;11624;53.250;7.456;2023-04-30T01:51:07;11.09;51.21
22917;DHT22;11624;53.250;7.456;2023-04-30T01:53:40;11.09;51.57
22917;DHT22;11624;53.250;7.456;2023-04-30T01:56:11;11.07;51.72
22917;DHT22;11624;53.250;7.456;2023-04-30T01:58:39;11.04;51.65
22917;DHT22;11624;53.250;7.456;2023-04-30T02:01:24;10.99;51.14
22917;DHT22;11624;53.250;7.456;2023-04-30T02:03:53;10.99;51.77
22917;DHT22;11624;53.250;7.456;2023-04-30T02:06:21;10.99;51.76
22917;DHT22;11624;53.250;7.456;2023-04-30T02:08:54;10.98;51.69
22917;DHT22;11624;53.250;7.456;2023-04-30T02:11:22;10.95;51.66
22917;DHT22;11624;53.250;7.456;2023-04-30T02:13:51;10.94;51.62
22917;DHT22;11624;53.250;7.456;2023-04-30T02:16:20;10.90;51.59
22917;DHT22;11624;53.250;7.456;2023-04-30T02:18:48;10.88;51.66
22917;DHT22;11624;53.250;7.456;2023-04-30T02:21:16;10.86;51.69
22917;DHT22;11624;53.250;7.456;2023-04-30T02:23:46;10.83;51.68
22917;DHT22;11624;53.250;7.456;2023-04-30T02:26:14;10.82;51.66
22917;DHT22;11624;53.250;7.456;2023-04-30T02:28:42;10.79;51.67
22917;DHT22;11624;53.250;7.456;2023-04-30T02:31:10;10.75;51.70
22917;DHT22;11624;53.250;7.456;2023-04-30T02:33:40;10.72;51.68
22917;DHT22;11624;53.250;7.456;2023-04-30T02:36:08;10.70;51.75
22917;DHT22;11624;53.250;7.456;2023-04-30T02:38:36;10.68;51.74
22917;DHT22;11624;53.250;7.456;2023-04-30T02:41:04;10.66;51.74
22917;DHT22;11624;53.250;7.456;2023-04-30T02:43:32;10.66;51.82
22917;DHT22;11624;53.250;7.456;2023-04-30T02:46:00;10.64;51.80
22917;DHT22;11624;53.250;7.456;2023-04-30T02:48:28;10.63;51.78
22917;DHT22;11624;53.250;7.456;2023-04-30T02:50:58;10.59;51.88
22917;DHT22;11624;53.250;7.456;2023-04-30T02:53:26;10.57;51.88
22917;DHT22;11624;53.250;7.456;2023-04-30T02:55:54;10.56;51.88
22917;DHT22;11624;53.250;7.456;2023-04-30T02:58:22;10.55;51.83
22917;DHT22;11624;53.250;7.456;2023-04-30T03:00:50;10.55;51.79
22917;DHT22;11624;53.250;7.456;2023-04-30T03:03:18;10.53;51.77
22917;DHT22;11624;53.250;7.456;2023-04-30T03:05:47;10.50;51.79
22917;DHT22;11624;53.250;7.456;2023-04-30T03:08:16;10.45;51.97
22917;DHT22;11624;53.250;7.456;2023-04-30T03:10:44;10.39;52.31
22917;DHT22;11624;53.250;7.456;2023-04-30T03:13:12;10.38;52.50
22917;DHT22;11624;53.250;7.456;2023-04-30T03:15:41;10.39;52.57
22917;DHT22;11624;53.250;7.456;2023-04-30T03:18:09;10.39;52.64
22917;DHT22;11624;53.250;7.456;2023-04-30T03:20:37;10.40;52.61
22917;DHT22;11624;53.250;7.456;2023-04-30T03:23:06;10.40;52.40
22917;DHT22;11624;53.250;7.456;2023-04-30T03:25:35;10.37;52.30
22917;DHT22;11624;53.250;7.456;2023-04-30T03:28:04;10.35;52.24
22917;DHT22;11624;53.250;7.456;2023-04-30T03:30:32;10.31;52.26
22917;DHT22;11624;53.250;7.456;2023-04-30T03:33:00;10.24;52.30
22917;DHT22;11624;53.250;7.456;2023-04-30T03:35:28;10.22;52.46
22917;DHT22;11624;53.250;7.456;2023-04-30T03:37:56;10.16;52.69
22917;DHT22;11624;53.250;7.456;2023-04-30T03:40:24;10.11;52.71
22917;DHT22;11624;53.250;7.456;2023-04-30T03:42:54;10.05;52.86
22917;DHT22;11624;53.250;7.456;2023-04-30T03:45:22;9.99;52.89
22917;DHT22;11624;53.250;7.456;2023-04-30T03:47:50;9.98;52.88
22917;DHT22;11624;53.250;7.456;2023-04-30T03:50:19;9.92;52.98
22917;DHT22;11624;53.250;7.456;2023-04-30T03:52:47;9.88;53.01
22917;DHT22;11624;53.250;7.456;2023-04-30T03:55:15;9.85;53.01
22917;DHT22;11624;53.250;7.456;2023-04-30T03:57:44;9.84;52.97
22917;DHT22;11624;53.250;7.456;2023-04-30T04:00:14;9.82;52.88
22917;DHT22;11624;53.250;7.456;2023-04-30T04:02:47;9.77;52.89
22917;DHT22;11624;53.250;7.456;2023-04-30T04:05:15;9.75;52.91
22917;DHT22;11624;53.250;7.456;2023-04-30T04:07:44;9.74;52.94
22917;DHT22;11624;53.250;7.456;2023-04-30T04:10:13;9.71;52.96
22917;DHT22;11624;53.250;7.456;2023-04-30T04:12:41;9.69;52.98
22917;DHT22;11624;53.250;7.456;2023-04-30T04:15:09;9.67;52.97
22917;DHT22;11624;53.250;7.456;2023-04-30T04:17:39;9.66;53.00
22917;DHT22;11624;53.250;7.456;2023-04-30T04:20:08;9.66;53.07
22917;DHT22;11624;53.250;7.456;2023-04-30T04:22:39;9.64;53.14
22917;DHT22;11624;53.250;7.456;2023-04-30T04:25:08;9.64;53.20
22917;DHT22;11624;53.250;7.456;2023-04-30T04:27:37;9.62;53.24
22917;DHT22;11624;53.250;7.456;2023-04-30T04:30:06;9.63;53.29
22917;DHT22;11624;53.250;7.456;2023-04-30T04:32:35;9.65;53.30
22917;DHT22;11624;53.250;7.456;2023-04-30T04:35:09;9.65;53.31
22917;DHT22;11624;53.250;7.456;2023-04-30T04:37:37;9.66;53.34
22917;DHT22;11624;53.250;7.456;2023-04-30T04:40:07;9.67;53.40
22917;DHT22;11624;53.250;7.456;2023-04-30T04:42:36;9.68;53.39
22917;DHT22;11624;53.250;7.456;2023-04-30T04:45:06;9.72;53.48
22917;DHT22;11624;53.250;7.456;2023-04-30T04:47:35;9.74;53.55
22917;DHT22;11624;53.250;7.456;2023-04-30T04:50:04;9.77;53.59
22917;DHT22;11624;53.250;7.456;2023-04-30T04:52:34;9.79;53.67
22917;DHT22;11624;53.250;7.456;2023-04-30T04:55:03;9.84;53.69
22917;DHT22;11624;53.250;7.456;2023-04-30T04:57:31;9.88;53.72
22917;DHT22;11624;53.250;7.456;2023-04-30T04:59:59;9.93;53.73
22917;DHT22;11624;53.250;7.456;2023-04-30T05:02:28;9.97;53.80
22917;DHT22;11624;53.250;7.456;2023-04-30T05:04:56;10.03;53.86
22917;DHT22;11624;53.250;7.456;2023-04-30T05:07:24;10.10;53.97
22917;DHT22;11624;53.250;7.456;2023-04-30T05:09:54;10.16;54.05
22917;DHT22;11624;53.250;7.456;2023-04-30T05:12:22;10.24;54.17
22917;DHT22;11624;53.250;7.456;2023-04-30T05:14:50;10.31;54.23
22917;DHT22;11624;53.250;7.456;2023-04-30T05:17:18;10.38;54.36
22917;DHT22;11624;53.250;7.456;2023-04-30T05:19:47;10.48;54.46
22917;DHT22;11624;53.250;7.456;2023-04-30T05:22:16;10.57;54.62
22917;DHT22;11624;53.250;7.456;2023-04-30T05:24:44;10.65;54.77
22917;DHT22;11624;53.250;7.456;2023-04-30T05:27:13;10.70;55.90
22917;DHT22;11624;53.250;7.456;2023-04-30T05:29:42;10.80;56.45
22917;DHT22;11624;53.250;7.456;2023-04-30T05:32:10;10.95;56.32
22917;DHT22;11624;53.250;7.456;2023-04-30T05:34:38;11.09;56.16
22917;DHT22;11624;53.250;7.456;2023-04-30T05:37:06;11.26;55.97
22917;DHT22;11624;53.250;7.456;2023-04-30T05:39:34;11.36;55.92
22917;DHT22;11624;53.250;7.456;2023-04-30T05:42:02;11.48;55.89
22917;DHT22;11624;53.250;7.456;2023-04-30T05:44:32;11.58;56.03
22917;DHT22;11624;53.250;7.456;2023-04-30T05:47:00;11.70;55.94
22917;DHT22;11624;53.250;7.456;2023-04-30T05:49:28;11.83;55.86
22917;DHT22;11624;53.250;7.456;2023-04-30T05:51:56;11.98;55.74
22917;DHT22;11624;53.250;7.456;2023-04-30T05:54:24;12.08;55.62
22917;DHT22;11624;53.250;7.456;2023-04-30T05:56:52;12.20;55.50
22917;DHT22;11624;53.250;7.456;2023-04-30T05:59:23;12.33;55.27
22917;DHT22;11624;53.250;7.456;2023-04-30T06:01:53;12.44;55.12
22917;DHT22;11624;53.250;7.456;2023-04-30T06:04:21;12.55;55.02
22917;DHT22;11624;53.250;7.456;2023-04-30T06:06:49;12.65;54.87
22917;DHT22;11624;53.250;7.456;2023-04-30T06:09:17;12.76;54.80
22917;DHT22;11624;53.250;7.456;2023-04-30T06:11:45;12.87;54.61
22917;DHT22;11624;53.250;7.456;2023-04-30T06:14:16;12.99;54.52
22917;DHT22;11624;53.250;7.456;2023-04-30T06:16:44;13.07;54.54
22917;DHT22;11624;53.250;7.456;2023-04-30T06:19:14;13.18;54.33
22917;DHT22;11624;53.250;7.456;2023-04-30T06:21:42;13.30;53.97
22917;DHT22;11624;53.250;7.456;2023-04-30T06:24:10;13.30;53.98
22917;DHT22;11624;53.250;7.456;2023-04-30T06:26:39;13.46;53.59
22917;DHT22;11624;53.250;7.456;2023-04-30T06:29:10;13.54;53.31
22917;DHT22;11624;53.250;7.456;2023-04-30T06:31:45;13.67;52.91
22917;DHT22;11624;53.250;7.456;2023-04-30T06:34:15;13.80;52.86
22917;DHT22;11624;53.250;7.456;2023-04-30T06:36:45;13.91;52.62
22917;DHT22;11624;53.250;7.456;2023-04-30T06:39:15;13.99;52.30
22917;DHT22;11624;53.250;7.456;2023-04-30T06:41:43;14.11;52.15
22917;DHT22;11624;53.250;7.456;2023-04-30T06:44:13;14.19;51.71
22917;DHT22;11624;53.250;7.456;2023-04-30T06:46:45;14.30;50.99
22917;DHT22;11624;53.250;7.456;2023-04-30T06:49:14;14.45;50.60
22917;DHT22;11624;53.250;7.456;2023-04-30T06:51:42;14.58;49.93
22917;DHT22;11624;53.250;7.456;2023-04-30T06:54:10;14.79;49.14
22917;DHT22;11624;53.250;7.456;2023-04-30T06:56:42;14.98;48.93
22917;DHT22;11624;53.250;7.456;2023-04-30T06:59:10;15.13;48.05
22917;DHT22;11624;53.250;7.456;2023-04-30T07:01:38;15.32;47.56
22917;DHT22;11624;53.250;7.456;2023-04-30T07:04:09;15.53;46.71
22917;DHT22;11624;53.250;7.456;2023-04-30T07:06:44;15.63;45.82
22917;DHT22;11624;53.250;7.456;2023-04-30T07:09:12;15.62;45.49
22917;DHT22;11624;53.250;7.456;2023-04-30T07:11:41;15.57;45.26
22917;DHT22;11624;53.250;7.456;2023-04-30T07:14:19;15.55;45.28
22917;DHT22;11624;53.250;7.456;2023-04-30T07:16:51;15.95;45.01
22917;DHT22;11624;53.250;7.456;2023-04-30T07:19:19;16.51;43.15
22917;DHT22;11624;53.250;7.456;2023-04-30T07:21:50;16.94;42.09
22917;DHT22;11624;53.250;7.456;2023-04-30T07:24:18;17.36;41.58
22917;DHT22;11624;53.250;7.456;2023-04-30T07:26:46;17.68;40.50
22917;DHT22;11624;53.250;7.456;2023-04-30T07:29:17;17.92;39.31
22917;DHT22;11624;53.250;7.456;2023-04-30T07:31:45;18.11;38.28
22917;DHT22;11624;53.250;7.456;2023-04-30T07:34:13;17.89;36.95
22917;DHT22;11624;53.250;7.456;2023-04-30T07:36:41;18.00;36.79
22917;DHT22;11624;53.250;7.456;2023-04-30T07:39:13;18.36;37.43
22917;DHT22;11624;53.250;7.456;2023-04-30T07:41:43;18.74;36.50
22917;DHT22;11624;53.250;7.456;2023-04-30T07:44:11;19.09;35.63
22917;DHT22;11624;53.250;7.456;2023-04-30T07:46:39;19.29;34.93
22917;DHT22;11624;53.250;7.456;2023-04-30T07:49:08;19.29;35.35
22917;DHT22;11624;53.250;7.456;2023-04-30T07:51:36;19.17;34.25
22917;DHT22;11624;53.250;7.456;2023-04-30T07:54:07;19.18;34.66
22917;DHT22;11624;53.250;7.456;2023-04-30T07:56:37;19.43;35.40
22917;DHT22;11624;53.250;7.456;2023-04-30T07:59:05;19.61;34.94
22917;DHT22;11624;53.250;7.456;2023-04-30T08:01:36;19.83;33.24
22917;DHT22;11624;53.250;7.456;2023-04-30T08:04:05;19.86;33.54
22917;DHT22;11624;53.250;7.456;2023-04-30T08:06:35;19.95;33.28
22917;DHT22;11624;53.250;7.456;2023-04-30T08:09:06;19.72;33.12
22917;DHT22;11624;53.250;7.456;2023-04-30T08:11:40;19.67;33.54
22917;DHT22;11624;53.250;7.456;2023-04-30T08:14:10;19.69;33.83
22917;DHT22;11624;53.250;7.456;2023-04-30T08:16:39;19.90;33.37
22917;DHT22;11624;53.250;7.456;2023-04-30T08:19:13;19.61;32.65
22917;DHT22;11624;53.250;7.456;2023-04-30T08:21:41;19.47;34.34
22917;DHT22;11624;53.250;7.456;2023-04-30T08:24:14;19.79;33.95
22917;DHT22;11624;53.250;7.456;2023-04-30T08:26:52;20.16;33.18
22917;DHT22;11624;53.250;7.456;2023-04-30T08:29:44;20.32;32.35
22917;DHT22;11624;53.250;7.456;2023-04-30T08:32:20;20.66;32.29
22917;DHT22;11624;53.250;7.456;2023-04-30T08:35:05;20.81;31.29
22917;DHT22;11624;53.250;7.456;2023-04-30T08:37:33;20.06;32.11
22917;DHT22;11624;53.250;7.456;2023-04-30T08:40:01;19.97;33.20
22917;DHT22;11624;53.250;7.456;2023-04-30T08:42:36;20.09;32.52
22917;DHT22;11624;53.250;7.456;2023-04-30T08:45:10;20.30;31.93
22917;DHT22;11624;53.250;7.456;2023-04-30T08:47:48;20.36;31.57
22917;DHT22;11624;53.250;7.456;2023-04-30T08:50:24;20.51;32.31
22917;DHT22;11624;53.250;7.456;2023-04-30T08:52:52;20.41;31.86
22917;DHT22;11624;53.250;7.456;2023-04-30T08:55:21;20.42;32.96
22917;DHT22;11624;53.250;7.456;2023-04-30T08:57:59;20.50;33.12
22917;DHT22;11624;53.250;7.456;2023-04-30T09:00:29;20.46;32.07
22917;DHT22;11624;53.250;7.456;2023-04-30T09:03:01;20.07;32.05
22917;DHT22;11624;53.250;7.456;2023-04-30T09:05:38;19.97;32.70
22917;DHT22;11624;53.250;7.456;2023-04-30T09:08:07;20.12;31.48
22917;DHT22;11624;53.250;7.456;2023-04-30T09:10:36;19.97;31.70
22917;DHT22;11624;53.250;7.456;2023-04-30T09:13:07;20.12;32.17
22917;DHT22;11624;53.250;7.456;2023-04-30T09:15:38;20.60;31.75
22917;DHT22;11624;53.250;7.456;2023-04-30T09:18:09;20.73;31.00
22917;DHT22;11624;53.250;7.456;2023-04-30T09:20:56;20.91;31.08
22917;DHT22;11624;53.250;7.456;2023-04-30T09:23:35;20.95;29.75
22917;DHT22;11624;53.250;7.456;2023-04-30T09:26:21;21.21;30.45
22917;DHT22;11624;53.250;7.456;2023-04-30T09:29:12;21.34;29.71
22917;DHT22;11624;53.250;7.456;2023-04-30T09:31:45;21.64;29.35
22917;DHT22;11624;53.250;7.456;2023-04-30T09:34:16;22.11;30.72
22917;DHT22;11624;53.250;7.456;2023-04-30T09:36:54;22.09;28.78
22917;DHT22;11624;53.250;7.456;2023-04-30T09:39:28;21.89;28.44
22917;DHT22;11624;53.250;7.456;2023-04-30T09:42:09;21.63;28.13
22917;DHT22;11624;53.250;7.456;2023-04-30T09:44:55;21.68;28.66
22917;DHT22;11624;53.250;7.456;2023-04-30T09:47:36;22.19;29.24
22917;DHT22;11624;53.250;7.456;2023-04-30T09:50:40;22.75;27.71
22917;DHT22;11624;53.250;7.456;2023-04-30T09:53:12;22.73;26.78
22917;DHT22;11624;53.250;7.456;2023-04-30T09:55:44;22.95;28.35
22917;DHT22;11624;53.250;7.456;2023-04-30T09:58:19;23.28;26.84
22917;DHT22;11624;53.250;7.456;2023-04-30T10:00:56;23.34;26.17
22917;DHT22;11624;53.250;7.456;2023-04-30T10:03:27;23.60;26.49
22917;DHT22;11624;53.250;7.456;2023-04-30T10:05:57;23.91;26.30
22917;DHT22;11624;53.250;7.456;2023-04-30T10:08:35;24.06;26.68
22917;DHT22;11624;53.250;7.456;2023-04-30T10:11:20;24.48;25.97
22917;DHT22;11624;53.250;7.456;2023-04-30T10:14:00;24.87;24.81
22917;DHT22;11624;53.250;7.456;2023-04-30T10:16:53;24.90;23.68
22917;DHT22;11624;53.250;7.456;2023-04-30T10:19:33;24.95;24.67
22917;DHT22;11624;53.250;7.456;2023-04-30T10:22:12;25.21;23.80
22917;DHT22;11624;53.250;7.456;2023-04-30T10:25:02;25.22;24.30
22917;DHT22;11624;53.250;7.456;2023-04-30T10:27:33;25.32;23.97
22917;DHT22;11624;53.250;7.456;2023-04-30T10:30:11;25.10;23.40
22917;DHT22;11624;53.250;7.456;2023-04-30T10:32:49;24.99;23.47
22917;DHT22;11624;53.250;7.456;2023-04-30T10:35:25;25.04;24.49
22917;DHT22;11624;53.250;7.456;2023-04-30T10:38:08;25.12;24.46
22917;DHT22;11624;53.250;7.456;2023-04-30T10:40:38;25.34;24.04
22917;DHT22;11624;53.250;7.456;2023-04-30T10:43:10;25.48;23.38
22917;DHT22;11624;53.250;7.456;2023-04-30T10:45:48;25.30;23.65
22917;DHT22;11624;53.250;7.456;2023-04-30T10:48:22;25.38;23.79
22917;DHT22;11624;53.250;7.456;2023-04-30T10:50:55;25.36;23.91
22917;DHT22;11624;53.250;7.456;2023-04-30T10:53:24;25.60;23.88
22917;DHT22;11624;53.250;7.456;2023-04-30T10:55:57;25.95;23.99
22917;DHT22;11624;53.250;7.456;2023-04-30T10:58:29;26.05;22.95
22917;DHT22;11624;53.250;7.456;2023-04-30T11:01:01;25.80;23.34
22917;DHT22;11624;53.250;7.456;2023-04-30T11:03:33;25.97;23.13
22917;DHT22;11624;53.250;7.456;2023-04-30T11:06:09;25.73;23.03
22917;DHT22;11624;53.250;7.456;2023-04-30T11:08:43;25.45;23.18
22917;DHT22;11624;53.250;7.456;2023-04-30T11:11:17;24.63;22.80
22917;DHT22;11624;53.250;7.456;2023-04-30T11:13:57;24.45;25.00
22917;DHT22;11624;53.250;7.456;2023-04-30T11:16:28;24.87;25.27
22917;DHT22;11624;53.250;7.456;2023-04-30T11:19:06;25.62;24.50
22917;DHT22;11624;53.250;7.456;2023-04-30T11:21:39;26.23;23.14
22917;DHT22;11624;53.250;7.456;2023-04-30T11:24:07;26.77;24.11
22917;DHT22;11624;53.250;7.456;2023-04-30T11:27:02;27.17;21.56
22917;DHT22;11624;53.250;7.456;2023-04-30T11:29:31;27.29;22.03
22917;DHT22;11624;53.250;7.456;2023-04-30T11:32:00;27.21;21.78
22917;DHT22;11624;53.250;7.456;2023-04-30T11:34:29;27.42;21.85
22917;DHT22;11624;53.250;7.456;2023-04-30T11:36:58;27.43;21.51
22917;DHT22;11624;53.250;7.456;2023-04-30T11:39:27;27.30;21.37
22917;DHT22;11624;53.250;7.456;2023-04-30T11:41:56;27.61;21.90
22917;DHT22;11624;53.250;7.456;2023-04-30T11:44:25;27.64;20.06
22917;DHT22;11624;53.250;7.456;2023-04-30T11:46:53;26.82;21.04
22917;DHT22;11624;53.250;7.456;2023-04-30T11:49:22;26.90;21.60
22917;DHT22;11624;53.250;7.456;2023-04-30T11:51:51;26.99;21.92
22917;DHT22;11624;53.250;7.456;2023-04-30T11:54:19;26.63;21.72
22917;DHT22;11624;53.250;7.456;2023-04-30T11:56:48;27.27;23.37
22917;DHT22;11624;53.250;7.456;2023-04-30T11:59:17;27.41;20.68
22917;DHT22;11624;53.250;7.456;2023-04-30T12:01:46;27.57;21.46
22917;DHT22;11624;53.250;7.456;2023-04-30T12:04:14;27.27;20.15
22917;DHT22;11624;53.250;7.456;2023-04-30T12:06:42;26.40;21.94
22917;DHT22;11624;53.250;7.456;2023-04-30T12:09:12;26.42;22.30
22917;DHT22;11624;53.250;7.456;2023-04-30T12:11:40;26.79;23.55
22917;DHT22;11624;53.250;7.456;2023-04-30T12:14:09;27.31;22.27
22917;DHT22;11624;53.250;7.456;2023-04-30T12:16:39;27.78;21.02
22917;DHT22;11624;53.250;7.456;2023-04-30T12:19:10;27.95;20.93
22917;DHT22;11624;53.250;7.456;2023-04-30T12:21:40;27.37;20.72
22917;DHT22;11624;53.250;7.456;2023-04-30T12:24:12;27.02;21.12
22917;DHT22;11624;53.250;7.456;2023-04-30T12:26:40;27.17;22.30
22917;DHT22;11624;53.250;7.456;2023-04-30T12:29:09;27.41;20.90
22917;DHT22;11624;53.250;7.456;2023-04-30T12:31:41;27.87;21.22
22917;DHT22;11624;53.250;7.456;2023-04-30T12:34:12;28.05;21.02
22917;DHT22;11624;53.250;7.456;2023-04-30T12:36:41;28.16;20.69
22917;DHT22;11624;53.250;7.456;2023-04-30T12:39:12;27.86;20.45
22917;DHT22;11624;53.250;7.456;2023-04-30T12:41:42;27.19;20.64
22917;DHT22;11624;53.250;7.456;2023-04-30T12:44:15;27.09;21.57
22917;DHT22;11624;53.250;7.456;2023-04-30T12:46:44;26.91;22.02
22917;DHT22;11624;53.250;7.456;2023-04-30T12:49:22;27.05;21.13
22917;DHT22;11624;53.250;7.456;2023-04-30T12:51:51;26.86;21.85
22917;DHT22;11624;53.250;7.456;2023-04-30T12:54:28;27.07;21.38
22917;DHT22;11624;53.250;7.456;2023-04-30T12:57:00;27.10;22.47
22917;DHT22;11624;53.250;7.456;2023-04-30T12:59:29;27.34;23.34
22917;DHT22;11624;53.250;7.456;2023-04-30T13:02:08;27.70;21.95
22917;DHT22;11624;53.250;7.456;2023-04-30T13:04:36;26.96;22.07
22917;DHT22;11624;53.250;7.456;2023-04-30T13:07:05;27.09;22.52
22917;DHT22;11624;53.250;7.456;2023-04-30T13:09:35;26.36;23.62
22917;DHT22;11624;53.250;7.456;2023-04-30T13:12:03;26.79;22.44
22917;DHT22;11624;53.250;7.456;2023-04-30T13:14:32;27.17;22.37
22917;DHT22;11624;53.250;7.456;2023-04-30T13:17:00;27.32;22.39
22917;DHT22;11624;53.250;7.456;2023-04-30T13:19:31;27.24;21.78
22917;DHT22;11624;53.250;7.456;2023-04-30T13:21:59;26.52;22.57
22917;DHT22;11624;53.250;7.456;2023-04-30T13:24:27;26.31;23.12
22917;DHT22;11624;53.250;7.456;2023-04-30T13:26:58;26.77;23.15
22917;DHT22;11624;53.250;7.456;2023-04-30T13:29:26;27.23;23.15
22917;DHT22;11624;53.250;7.456;2023-04-30T13:31:54;27.56;22.99
22917;DHT22;11624;53.250;7.456;2023-04-30T13:34:22;27.58;22.20
22917;DHT22;11624;53.250;7.456;2023-04-30T13:36:50;27.30;22.04
22917;DHT22;11624;53.250;7.456;2023-04-30T13:39:19;27.30;22.37
22917;DHT22;11624;53.250;7.456;2023-04-30T13:41:47;27.57;22.03
22917;DHT22;11624;53.250;7.456;2023-04-30T13:44:17;27.70;22.11
22917;DHT22;11624;53.250;7.456;2023-04-30T13:46:45;27.52;21.51
22917;DHT22;11624;53.250;7.456;2023-04-30T13:49:14;27.05;21.69
22917;DHT22;11624;53.250;7.456;2023-04-30T13:51:42;26.82;22.66
22917;DHT22;11624;53.250;7.456;2023-04-30T13:54:10;27.14;23.15
22917;DHT22;11624;53.250;7.456;2023-04-30T13:56:38;27.54;22.39
22917;DHT22;11624;53.250;7.456;2023-04-30T13:59:06;27.35;21.98
22917;DHT22;11624;53.250;7.456;2023-04-30T14:01:35;27.37;22.48
22917;DHT22;11624;53.250;7.456;2023-04-30T14:04:04;27.30;22.42
22917;DHT22;11624;53.250;7.456;2023-04-30T14:06:32;27.46;22.11
22917;DHT22;11624;53.250;7.456;2023-04-30T14:09:00;27.32;23.45
22917;DHT22;11624;53.250;7.456;2023-04-30T14:11:28;27.37;22.57
22917;DHT22;11624;53.250;7.456;2023-04-30T14:13:56;27.56;23.46
22917;DHT22;11624;53.250;7.456;2023-04-30T14:16:24;27.58;23.47
22917;DHT22;11624;53.250;7.456;2023-04-30T14:18:54;27.74;23.29
22917;DHT22;11624;53.250;7.456;2023-04-30T14:21:22;27.86;22.61
22917;DHT22;11624;53.250;7.456;2023-04-30T14:23:50;27.69;22.00
22917;DHT22;11624;53.250;7.456;2023-04-30T14:26:18;27.28;22.58
22917;DHT22;11624;53.250;7.456;2023-04-30T14:28:47;27.19;23.34
22917;DHT22;11624;53.250;7.456;2023-04-30T14:31:16;27.34;23.39
22917;DHT22;11624;53.250;7.456;2023-04-30T14:33:44;27.44;22.47
22917;DHT22;11624;53.250;7.456;2023-04-30T14:36:14;27.43;23.32
22917;DHT22;11624;53.250;7.456;2023-04-30T14:38:42;27.38;22.87
22917;DHT22;11624;53.250;7.456;2023-04-30T14:41:11;27.37;22.91
22917;DHT22;11624;53.250;7.456;2023-04-30T14:43:39;27.02;23.37
22917;DHT22;11624;53.250;7.456;2023-04-30T14:46:08;26.67;24.56
22917;DHT22;11624;53.250;7.456;2023-04-30T14:48:36;26.45;24.16
22917;DHT22;11624;53.250;7.456;2023-04-30T14:51:04;26.06;24.72
22917;DHT22;11624;53.250;7.456;2023-04-30T14:53:33;25.71;25.39
22917;DHT22;11624;53.250;7.456;2023-04-30T14:56:03;25.44;25.59
22917;DHT22;11624;53.250;7.456;2023-04-30T14:58:32;25.31;25.48
22917;DHT22;11624;53.250;7.456;2023-04-30T15:01:00;25.14;26.24
22917;DHT22;11624;53.250;7.456;2023-04-30T15:03:29;25.08;25.97
22917;DHT22;11624;53.250;7.456;2023-04-30T15:05:58;25.32;26.26
22917;DHT22;11624;53.250;7.456;2023-04-30T15:08:26;25.01;26.70
22917;DHT22;11624;53.250;7.456;2023-04-30T15:10:55;25.02;27.10
22917;DHT22;11624;53.250;7.456;2023-04-30T15:13:24;24.78;26.77
22917;DHT22;11624;53.250;7.456;2023-04-30T15:15:52;24.66;27.39
22917;DHT22;11624;53.250;7.456;2023-04-30T15:18:20;24.80;27.27
22917;DHT22;11624;53.250;7.456;2023-04-30T15:20:48;25.40;26.89
22917;DHT22;11624;53.250;7.456;2023-04-30T15:23:16;26.01;26.95
22917;DHT22;11624;53.250;7.456;2023-04-30T15:25:44;26.33;26.39
22917;DHT22;11624;53.250;7.456;2023-04-30T15:28:14;26.57;25.49
22917;DHT22;11624;53.250;7.456;2023-04-30T15:30:42;26.80;24.85
22917;DHT22;11624;53.250;7.456;2023-04-30T15:33:10;26.83;24.16
22917;DHT22;11624;53.250;7.456;2023-04-30T15:35:39;26.77;24.17
22917;DHT22;11624;53.250;7.456;2023-04-30T15:38:07;26.81;24.40
22917;DHT22;11624;53.250;7.456;2023-04-30T15:40:35;26.99;24.01
22917;DHT22;11624;53.250;7.456;2023-04-30T15:43:04;26.84;23.77
22917;DHT22;11624;53.250;7.456;2023-04-30T15:45:34;26.36;24.34
22917;DHT22;11624;53.250;7.456;2023-04-30T15:48:03;26.06;24.97
22917;DHT22;11624;53.250;7.456;2023-04-30T15:50:31;26.24;24.91
22917;DHT22;11624;53.250;7.456;2023-04-30T15:52:59;26.19;24.07
22917;DHT22;11624;53.250;7.456;2023-04-30T15:55:27;26.08;24.91